Time,TemperatureF,DewpointF,PressureIn,WindDirection,WindDirectionDegrees,WindSpeedMPH,WindSpeedGustMPH,Humidity,HourlyPrecipIn,Conditions,Clouds,dailyrainin,SolarRadiationWatts/m^2,SoftwareType,DateUTC
2013-07-03 00:04:00,72.0,52.0,-100.00,WSW,250,10.0,18.0,50,0.00,,,0.00,0.000000,,2013-07-03 07:04:00,
2013-07-03 00:12:00,72.0,52.0,-100.00,WSW,250,10.0,18.0,50,0.00,,,0.00,0.000000,,2013-07-03 07:12:00,
2013-07-03 03:56:00,78.0,50.0,-100.00,WSW,251,4.0,11.0,37,-99.99,,,0.00,0.000000,,2013-07-03 10:56:00,
2013-07-03 04:03:00,78.0,50.0,-100.00,WSW,251,4.0,11.0,37,-99.99,,,0.00,0.000000,,2013-07-03 11:03:00,
2013-07-03 05:04:00,78.0,46.0,-100.00,West,265,6.0,10.0,32,-99.99,,,0.00,0.000000,,2013-07-03 12:04:00,
2013-07-03 05:22:00,78.0,46.0,-100.00,West,265,6.0,10.0,32,-99.99,,,0.00,0.000000,,2013-07-03 12:22:00,
2013-07-03 05:58:00,79.0,50.0,-100.00,WSW,254,8.0,12.0,37,0.00,,,0.00,0.000000,,2013-07-03 12:58:00,
2013-07-03 06:03:00,79.0,50.0,-100.00,WSW,254,8.0,12.0,37,0.00,,,0.00,0.000000,,2013-07-03 13:03:00,
2013-07-03 06:23:00,79.0,50.0,-100.00,WSW,254,8.0,12.0,37,0.00,,,0.00,0.000000,,2013-07-03 13:23:00,
2013-07-03 08:03:00,83.0,48.0,-100.00,WSW,257,6.0,9.0,30,-99.99,,,0.00,106.000000,,2013-07-03 15:03:00,
2013-07-03 08:14:00,83.0,48.0,-100.00,WSW,257,6.0,9.0,30,-99.99,,,0.00,106.000000,,2013-07-03 15:14:00,
2013-07-03 08:23:00,83.0,48.0,-100.00,WSW,257,6.0,9.0,30,-99.99,,,0.00,106.000000,,2013-07-03 15:23:00,
2013-07-03 08:57:00,88.0,52.0,-100.00,West,262,6.0,10.0,29,-99.99,,,0.00,296.000000,,2013-07-03 15:57:00,
2013-07-03 09:05:00,88.0,52.0,-100.00,West,262,6.0,10.0,29,-99.99,,,0.00,296.000000,,2013-07-03 16:05:00,
2013-07-03 09:22:00,88.0,52.0,-100.00,West,262,6.0,10.0,29,-99.99,,,0.00,296.000000,,2013-07-03 16:22:00,
2013-07-03 11:58:00,91.0,55.0,-100.00,West,269,7.0,11.0,30,-99.99,,,0.00,773.000000,,2013-07-03 18:58:00,
2013-07-03 12:04:00,91.0,55.0,-100.00,West,269,7.0,11.0,30,-99.99,,,0.00,773.000000,,2013-07-03 19:04:00,
2013-07-03 12:14:00,91.0,55.0,-100.00,West,269,7.0,11.0,30,-99.99,,,0.00,773.000000,,2013-07-03 19:14:00,
2013-07-03 12:25:00,91.0,55.0,-100.00,West,269,7.0,11.0,30,-99.99,,,0.00,773.000000,,2013-07-03 19:25:00,
2013-07-03 12:57:00,96.0,59.0,-100.00,NNW,329,5.0,11.0,29,0.00,,,0.00,873.000000,,2013-07-03 19:57:00,
2013-07-03 13:02:00,96.0,59.0,-100.00,NNW,329,5.0,11.0,29,0.00,,,0.00,873.000000,,2013-07-03 20:02:00,
2013-07-03 13:22:00,96.0,59.0,-100.00,NNW,329,5.0,11.0,29,0.00,,,0.00,873.000000,,2013-07-03 20:22:00,
2013-07-03 13:55:00,99.0,61.0,-100.00,NNW,336,5.0,11.0,29,0.00,,,0.00,922.000000,,2013-07-03 20:55:00,
2013-07-03 14:04:00,99.0,61.0,-100.00,NNW,336,5.0,11.0,29,0.00,,,0.00,922.000000,,2013-07-03 21:04:00,
2013-07-03 14:11:00,99.0,61.0,-100.00,NNW,336,5.0,11.0,29,0.00,,,0.00,922.000000,,2013-07-03 21:11:00,
2013-07-03 14:22:00,99.0,61.0,-100.00,NNW,336,5.0,11.0,29,0.00,,,0.00,922.000000,,2013-07-03 21:22:00,
2013-07-03 16:02:00,97.0,54.0,-100.00,WNW,283,13.0,19.0,24,-99.99,,,0.00,839.000000,,2013-07-03 23:02:00,
2013-07-03 16:13:00,97.0,54.0,-100.00,WNW,283,13.0,19.0,24,-99.99,,,0.00,839.000000,,2013-07-03 23:13:00,
2013-07-03 16:22:00,97.0,54.0,-100.00,WNW,283,13.0,19.0,24,-99.99,,,0.00,839.000000,,2013-07-03 23:22:00,
2013-07-03 16:56:00,98.0,55.0,-100.00,West,273,17.0,23.0,24,0.00,,,0.00,753.000000,,2013-07-03 23:56:00,
2013-07-03 17:02:00,98.0,55.0,-100.00,West,273,17.0,23.0,24,0.00,,,0.00,753.000000,,2013-07-04 00:02:00,
2013-07-03 17:12:00,98.0,55.0,-100.00,West,273,17.0,23.0,24,0.00,,,0.00,753.000000,,2013-07-04 00:12:00,
2013-07-03 17:22:00,98.0,55.0,-100.00,West,273,17.0,23.0,24,0.00,,,0.00,753.000000,,2013-07-04 00:22:00,
2013-07-03 17:57:00,95.0,55.0,-100.00,West,272,20.0,27.0,26,0.00,,,0.00,616.000000,,2013-07-04 00:57:00,
2013-07-03 18:03:00,95.0,55.0,-100.00,West,272,20.0,27.0,26,0.00,,,0.00,616.000000,,2013-07-04 01:03:00,
2013-07-03 18:23:00,95.0,55.0,-100.00,West,272,20.0,27.0,26,0.00,,,0.00,616.000000,,2013-07-04 01:23:00,
2013-07-03 18:54:00,92.0,54.0,-100.00,West,272,18.0,26.0,28,0.00,,,0.00,412.000000,,2013-07-04 01:54:00,
2013-07-03 19:12:00,92.0,54.0,-100.00,West,272,18.0,26.0,28,0.00,,,0.00,412.000000,,2013-07-04 02:12:00,
2013-07-03 19:22:00,92.0,54.0,-100.00,West,272,18.0,26.0,28,0.00,,,0.00,412.000000,,2013-07-04 02:22:00,
2013-07-03 19:56:00,89.0,54.0,-100.00,West,271,13.0,25.0,30,0.00,,,0.00,225.000000,,2013-07-04 02:56:00,
2013-07-03 20:04:00,89.0,54.0,-100.00,West,271,13.0,25.0,30,0.00,,,0.00,225.000000,,2013-07-04 03:04:00,
2013-07-03 20:12:00,89.0,54.0,-100.00,West,271,13.0,25.0,30,0.00,,,0.00,225.000000,,2013-07-04 03:12:00,
2013-07-03 20:24:00,89.0,54.0,-100.00,West,271,13.0,25.0,30,0.00,,,0.00,225.000000,,2013-07-04 03:24:00,
2013-07-03 20:57:00,86.0,53.0,-100.00,West,264,10.0,15.0,32,0.00,,,0.00,65.000000,,2013-07-04 03:57:00,
2013-07-03 21:02:00,86.0,53.0,-100.00,West,264,10.0,15.0,32,0.00,,,0.00,65.000000,,2013-07-04 04:02:00,
2013-07-03 21:11:00,86.0,53.0,-100.00,West,264,10.0,15.0,32,0.00,,,0.00,65.000000,,2013-07-04 04:11:00,
2013-07-03 21:22:00,86.0,53.0,-100.00,West,264,10.0,15.0,32,0.00,,,0.00,65.000000,,2013-07-04 04:22:00,
2013-07-03 21:52:00,81.0,51.0,-100.00,West,260,12.0,18.0,35,0.00,,,0.00,1.000000,,2013-07-04 04:52:00,
2013-07-03 22:01:00,81.0,51.0,-100.00,West,260,12.0,18.0,35,0.00,,,0.00,1.000000,,2013-07-04 05:01:00,
2013-07-03 22:12:00,81.0,51.0,-100.00,West,260,12.0,18.0,35,0.00,,,0.00,1.000000,,2013-07-04 05:12:00,
2013-07-03 22:22:00,81.0,51.0,-100.00,West,260,12.0,18.0,35,0.00,,,0.00,1.000000,,2013-07-04 05:22:00,
2013-07-03 22:52:00,83.0,52.0,-100.00,West,261,11.0,17.0,34,0.00,,,0.00,0.000000,,2013-07-04 05:52:00,
2013-07-03 23:01:00,83.0,52.0,-100.00,West,261,11.0,17.0,34,0.00,,,0.00,0.000000,,2013-07-04 06:01:00,
2013-07-03 23:11:00,83.0,52.0,-100.00,West,261,11.0,17.0,34,0.00,,,0.00,0.000000,,2013-07-04 06:11:00,
2013-07-03 23:22:00,83.0,52.0,-100.00,West,261,11.0,17.0,34,0.00,,,0.00,0.000000,,2013-07-04 06:22:00,
2013-07-03 23:53:00,78.0,48.0,-100.00,WSW,256,13.0,16.0,35,0.00,,,0.00,0.000000,,2013-07-04 06:53:00,